sensor_id;sensor_type;location;lat;lon;timestamp;P1;durP1;ratioP1;P2;durP2;ratioP2
52354;SDS011;38286;51.156;17.038;2022-11-20T00:01:41;81.72;;;29.88;;
52354;SDS011;38286;51.156;17.038;2022-11-20T00:04:07;82.72;;;29.83;;
52354;SDS011;38286;51.156;17.038;2022-11-20T00:06:34;89.65;;;30.92;;
52354;SDS011;38286;51.156;17.038;2022-11-20T00:09:00;88.32;;;33.60;;
52354;SDS011;38286;51.156;17.038;2022-11-20T00:11:27;101.70;;;35.08;;
52354;SDS011;38286;51.156;17.038;2022-11-20T00:13:54;102.97;;;36.90;;
52354;SDS011;38286;51.156;17.038;2022-11-20T00:16:26;108.55;;;36.45;;
52354;SDS011;38286;51.156;17.038;2022-11-20T00:18:53;106.30;;;35.05;;
52354;SDS011;38286;51.156;17.038;2022-11-20T00:21:20;84.88;;;29.60;;
52354;SDS011;38286;51.156;17.038;2022-11-20T00:23:47;74.72;;;24.73;;
52354;SDS011;38286;51.156;17.038;2022-11-20T00:26:14;69.28;;;24.65;;
52354;SDS011;38286;51.156;17.038;2022-11-20T00:28:41;76.10;;;25.48;;
52354;SDS011;38286;51.156;17.038;2022-11-20T00:31:12;100.63;;;33.15;;
52354;SDS011;38286;51.156;17.038;2022-11-20T00:33:39;80.60;;;28.60;;
52354;SDS011;38286;51.156;17.038;2022-11-20T00:36:10;105.72;;;35.80;;
52354;SDS011;38286;51.156;17.038;2022-11-20T00:38:40;110.78;;;37.55;;
52354;SDS011;38286;51.156;17.038;2022-11-20T00:41:07;95.78;;;34.90;;
52354;SDS011;38286;51.156;17.038;2022-11-20T00:43:33;112.90;;;32.35;;
52354;SDS011;38286;51.156;17.038;2022-11-20T00:46:00;77.78;;;28.00;;
52354;SDS011;38286;51.156;17.038;2022-11-20T00:48:27;82.90;;;28.67;;
52354;SDS011;38286;51.156;17.038;2022-11-20T00:50:53;75.10;;;26.92;;
52354;SDS011;38286;51.156;17.038;2022-11-20T00:53:19;75.18;;;25.58;;
52354;SDS011;38286;51.156;17.038;2022-11-20T00:56:05;79.40;;;27.77;;
52354;SDS011;38286;51.156;17.038;2022-11-20T00:58:32;70.53;;;26.10;;
52354;SDS011;38286;51.156;17.038;2022-11-20T01:01:09;79.05;;;26.42;;
52354;SDS011;38286;51.156;17.038;2022-11-20T01:03:43;78.18;;;26.15;;
52354;SDS011;38286;51.156;17.038;2022-11-20T01:06:11;71.43;;;26.25;;
52354;SDS011;38286;51.156;17.038;2022-11-20T01:08:37;77.28;;;26.08;;
52354;SDS011;38286;51.156;17.038;2022-11-20T01:11:07;70.80;;;24.55;;
52354;SDS011;38286;51.156;17.038;2022-11-20T01:13:34;71.28;;;23.10;;
52354;SDS011;38286;51.156;17.038;2022-11-20T01:16:04;69.53;;;23.17;;
52354;SDS011;38286;51.156;17.038;2022-11-20T01:18:37;64.13;;;22.63;;
52354;SDS011;38286;51.156;17.038;2022-11-20T01:21:05;66.95;;;21.63;;
52354;SDS011;38286;51.156;17.038;2022-11-20T01:23:36;57.80;;;19.85;;
52354;SDS011;38286;51.156;17.038;2022-11-20T01:26:04;63.25;;;22.45;;
52354;SDS011;38286;51.156;17.038;2022-11-20T01:28:31;63.38;;;22.85;;
52354;SDS011;38286;51.156;17.038;2022-11-20T01:30:57;67.47;;;19.83;;
52354;SDS011;38286;51.156;17.038;2022-11-20T01:33:23;65.25;;;23.25;;
52354;SDS011;38286;51.156;17.038;2022-11-20T01:35:49;61.08;;;20.63;;
52354;SDS011;38286;51.156;17.038;2022-11-20T01:38:15;68.47;;;25.17;;
52354;SDS011;38286;51.156;17.038;2022-11-20T01:40:41;69.40;;;24.85;;
52354;SDS011;38286;51.156;17.038;2022-11-20T01:43:14;68.22;;;23.30;;
52354;SDS011;38286;51.156;17.038;2022-11-20T01:48:26;71.28;;;24.42;;
52354;SDS011;38286;51.156;17.038;2022-11-20T01:51:05;65.28;;;24.98;;
52354;SDS011;38286;51.156;17.038;2022-11-20T01:53:35;77.80;;;24.50;;
52354;SDS011;38286;51.156;17.038;2022-11-20T01:56:03;71.03;;;25.02;;
52354;SDS011;38286;51.156;17.038;2022-11-20T01:58:32;59.03;;;21.08;;
52354;SDS011;38286;51.156;17.038;2022-11-20T02:01:00;60.97;;;20.35;;
52354;SDS011;38286;51.156;17.038;2022-11-20T02:03:26;40.63;;;14.60;;
52354;SDS011;38286;51.156;17.038;2022-11-20T02:06:02;49.97;;;16.63;;
52354;SDS011;38286;51.156;17.038;2022-11-20T02:08:32;54.58;;;17.98;;
52354;SDS011;38286;51.156;17.038;2022-11-20T02:10:58;37.72;;;13.05;;
52354;SDS011;38286;51.156;17.038;2022-11-20T02:17:04;50.10;;;16.60;;
52354;SDS011;38286;51.156;17.038;2022-11-20T02:19:30;48.92;;;19.02;;
52354;SDS011;38286;51.156;17.038;2022-11-20T02:22:05;55.80;;;20.77;;
52354;SDS011;38286;51.156;17.038;2022-11-20T02:24:34;63.97;;;19.77;;
52354;SDS011;38286;51.156;17.038;2022-11-20T02:27:01;58.63;;;21.30;;
52354;SDS011;38286;51.156;17.038;2022-11-20T02:29:36;58.60;;;20.55;;
52354;SDS011;38286;51.156;17.038;2022-11-20T02:32:04;54.47;;;18.10;;
52354;SDS011;38286;51.156;17.038;2022-11-20T02:34:30;51.58;;;16.52;;
52354;SDS011;38286;51.156;17.038;2022-11-20T02:36:56;67.40;;;21.35;;
52354;SDS011;38286;51.156;17.038;2022-11-20T02:39:24;57.70;;;20.83;;
52354;SDS011;38286;51.156;17.038;2022-11-20T02:41:51;67.15;;;22.58;;
52354;SDS011;38286;51.156;17.038;2022-11-20T02:44:18;66.60;;;22.63;;
52354;SDS011;38286;51.156;17.038;2022-11-20T02:46:45;66.13;;;23.55;;
52354;SDS011;38286;51.156;17.038;2022-11-20T02:49:11;71.47;;;24.10;;
52354;SDS011;38286;51.156;17.038;2022-11-20T02:51:36;65.40;;;23.90;;
52354;SDS011;38286;51.156;17.038;2022-11-20T02:54:02;64.45;;;22.83;;
52354;SDS011;38286;51.156;17.038;2022-11-20T02:56:28;64.15;;;22.10;;
52354;SDS011;38286;51.156;17.038;2022-11-20T02:58:54;60.60;;;21.40;;
52354;SDS011;38286;51.156;17.038;2022-11-20T03:01:20;63.17;;;22.75;;
52354;SDS011;38286;51.156;17.038;2022-11-20T03:03:46;68.35;;;25.48;;
52354;SDS011;38286;51.156;17.038;2022-11-20T03:06:14;72.70;;;24.80;;
52354;SDS011;38286;51.156;17.038;2022-11-20T03:08:41;73.22;;;23.98;;
52354;SDS011;38286;51.156;17.038;2022-11-20T03:11:07;68.32;;;22.63;;
52354;SDS011;38286;51.156;17.038;2022-11-20T03:13:33;75.22;;;24.02;;
52354;SDS011;38286;51.156;17.038;2022-11-20T03:16:04;74.47;;;26.85;;
52354;SDS011;38286;51.156;17.038;2022-11-20T03:18:31;75.47;;;27.00;;
52354;SDS011;38286;51.156;17.038;2022-11-20T03:20:57;75.72;;;27.33;;
52354;SDS011;38286;51.156;17.038;2022-11-20T03:23:24;83.32;;;27.77;;
52354;SDS011;38286;51.156;17.038;2022-11-20T03:25:50;79.10;;;28.15;;
52354;SDS011;38286;51.156;17.038;2022-11-20T03:28:16;78.35;;;29.55;;
52354;SDS011;38286;51.156;17.038;2022-11-20T03:30:41;79.75;;;30.63;;
52354;SDS011;38286;51.156;17.038;2022-11-20T03:33:07;82.45;;;29.83;;
52354;SDS011;38286;51.156;17.038;2022-11-20T03:35:32;82.60;;;29.42;;
52354;SDS011;38286;51.156;17.038;2022-11-20T03:37:58;71.75;;;27.05;;
52354;SDS011;38286;51.156;17.038;2022-11-20T03:40:23;76.40;;;27.02;;
52354;SDS011;38286;51.156;17.038;2022-11-20T03:42:49;87.22;;;29.02;;
52354;SDS011;38286;51.156;17.038;2022-11-20T03:45:15;76.95;;;27.75;;
52354;SDS011;38286;51.156;17.038;2022-11-20T03:47:42;74.40;;;26.25;;
52354;SDS011;38286;51.156;17.038;2022-11-20T03:50:08;88.10;;;29.38;;
52354;SDS011;38286;51.156;17.038;2022-11-20T03:52:35;90.60;;;29.13;;
52354;SDS011;38286;51.156;17.038;2022-11-20T03:55:00;104.22;;;30.92;;
52354;SDS011;38286;51.156;17.038;2022-11-20T03:57:26;100.40;;;32.15;;
52354;SDS011;38286;51.156;17.038;2022-11-20T03:59:53;111.05;;;34.72;;
52354;SDS011;38286;51.156;17.038;2022-11-20T04:02:18;120.07;;;35.25;;
52354;SDS011;38286;51.156;17.038;2022-11-20T04:04:44;128.88;;;39.95;;
52354;SDS011;38286;51.156;17.038;2022-11-20T04:07:12;110.05;;;33.58;;
52354;SDS011;38286;51.156;17.038;2022-11-20T04:09:38;158.00;;;49.53;;
52354;SDS011;38286;51.156;17.038;2022-11-20T04:12:04;88.05;;;29.73;;
52354;SDS011;38286;51.156;17.038;2022-11-20T04:14:29;81.28;;;29.42;;
52354;SDS011;38286;51.156;17.038;2022-11-20T04:16:55;84.00;;;28.92;;
52354;SDS011;38286;51.156;17.038;2022-11-20T04:19:20;102.35;;;33.70;;
52354;SDS011;38286;51.156;17.038;2022-11-20T04:21:46;93.25;;;31.83;;
52354;SDS011;38286;51.156;17.038;2022-11-20T04:24:12;88.40;;;32.90;;
52354;SDS011;38286;51.156;17.038;2022-11-20T04:26:38;85.43;;;29.20;;
52354;SDS011;38286;51.156;17.038;2022-11-20T04:29:03;83.15;;;29.02;;
52354;SDS011;38286;51.156;17.038;2022-11-20T04:31:30;84.38;;;30.38;;
52354;SDS011;38286;51.156;17.038;2022-11-20T04:34:03;88.22;;;30.88;;
52354;SDS011;38286;51.156;17.038;2022-11-20T04:36:30;80.53;;;30.65;;
52354;SDS011;38286;51.156;17.038;2022-11-20T04:38:59;80.50;;;30.50;;
52354;SDS011;38286;51.156;17.038;2022-11-20T04:41:27;79.65;;;27.63;;
52354;SDS011;38286;51.156;17.038;2022-11-20T04:43:54;77.90;;;29.38;;
52354;SDS011;38286;51.156;17.038;2022-11-20T04:46:25;76.28;;;27.98;;
52354;SDS011;38286;51.156;17.038;2022-11-20T04:48:51;61.67;;;24.40;;
52354;SDS011;38286;51.156;17.038;2022-11-20T04:51:17;81.38;;;28.20;;
52354;SDS011;38286;51.156;17.038;2022-11-20T04:53:43;78.68;;;30.02;;
52354;SDS011;38286;51.156;17.038;2022-11-20T04:56:10;78.90;;;27.67;;
52354;SDS011;38286;51.156;17.038;2022-11-20T04:58:36;78.82;;;28.00;;
52354;SDS011;38286;51.156;17.038;2022-11-20T05:03:29;76.38;;;24.10;;
52354;SDS011;38286;51.156;17.038;2022-11-20T05:05:55;81.90;;;28.58;;
52354;SDS011;38286;51.156;17.038;2022-11-20T05:08:20;77.88;;;29.80;;
52354;SDS011;38286;51.156;17.038;2022-11-20T05:10:46;80.93;;;26.67;;
52354;SDS011;38286;51.156;17.038;2022-11-20T05:13:12;86.45;;;29.45;;
52354;SDS011;38286;51.156;17.038;2022-11-20T05:15:38;75.78;;;28.55;;
52354;SDS011;38286;51.156;17.038;2022-11-20T05:18:03;78.25;;;28.38;;
52354;SDS011;38286;51.156;17.038;2022-11-20T05:20:29;80.22;;;27.77;;
52354;SDS011;38286;51.156;17.038;2022-11-20T05:22:57;73.78;;;26.33;;
52354;SDS011;38286;51.156;17.038;2022-11-20T05:25:23;74.05;;;25.00;;
52354;SDS011;38286;51.156;17.038;2022-11-20T05:27:49;78.95;;;28.23;;
52354;SDS011;38286;51.156;17.038;2022-11-20T05:30:15;65.63;;;23.23;;
52354;SDS011;38286;51.156;17.038;2022-11-20T05:32:40;78.47;;;28.38;;
52354;SDS011;38286;51.156;17.038;2022-11-20T05:35:06;84.70;;;28.95;;
52354;SDS011;38286;51.156;17.038;2022-11-20T05:37:32;78.78;;;27.65;;
52354;SDS011;38286;51.156;17.038;2022-11-20T05:39:58;80.78;;;28.10;;
52354;SDS011;38286;51.156;17.038;2022-11-20T05:42:23;78.20;;;25.42;;
52354;SDS011;38286;51.156;17.038;2022-11-20T05:44:55;72.22;;;25.08;;
52354;SDS011;38286;51.156;17.038;2022-11-20T05:47:24;74.88;;;28.60;;
52354;SDS011;38286;51.156;17.038;2022-11-20T05:49:51;77.28;;;28.27;;
52354;SDS011;38286;51.156;17.038;2022-11-20T05:52:16;76.88;;;26.85;;
52354;SDS011;38286;51.156;17.038;2022-11-20T05:54:42;77.30;;;28.05;;
52354;SDS011;38286;51.156;17.038;2022-11-20T05:57:08;92.22;;;31.33;;
52354;SDS011;38286;51.156;17.038;2022-11-20T05:59:33;79.07;;;28.45;;
52354;SDS011;38286;51.156;17.038;2022-11-20T06:01:59;78.35;;;30.60;;
52354;SDS011;38286;51.156;17.038;2022-11-20T06:04:25;90.25;;;30.50;;
52354;SDS011;38286;51.156;17.038;2022-11-20T06:06:50;83.55;;;29.65;;
52354;SDS011;38286;51.156;17.038;2022-11-20T06:09:16;75.70;;;26.13;;
52354;SDS011;38286;51.156;17.038;2022-11-20T06:11:42;85.15;;;31.48;;
52354;SDS011;38286;51.156;17.038;2022-11-20T06:14:07;95.82;;;33.00;;
52354;SDS011;38286;51.156;17.038;2022-11-20T06:16:33;91.35;;;31.75;;
52354;SDS011;38286;51.156;17.038;2022-11-20T06:18:59;83.97;;;30.05;;
52354;SDS011;38286;51.156;17.038;2022-11-20T06:21:24;85.93;;;30.27;;
52354;SDS011;38286;51.156;17.038;2022-11-20T06:23:50;81.15;;;28.58;;
52354;SDS011;38286;51.156;17.038;2022-11-20T06:26:24;88.63;;;29.77;;
52354;SDS011;38286;51.156;17.038;2022-11-20T06:28:51;86.13;;;30.75;;
52354;SDS011;38286;51.156;17.038;2022-11-20T06:31:18;101.18;;;34.95;;
52354;SDS011;38286;51.156;17.038;2022-11-20T06:33:45;90.85;;;32.83;;
52354;SDS011;38286;51.156;17.038;2022-11-20T06:36:12;94.47;;;32.30;;
52354;SDS011;38286;51.156;17.038;2022-11-20T06:38:39;87.70;;;28.50;;
52354;SDS011;38286;51.156;17.038;2022-11-20T06:41:05;85.80;;;30.40;;
52354;SDS011;38286;51.156;17.038;2022-11-20T06:43:31;90.97;;;29.52;;
52354;SDS011;38286;51.156;17.038;2022-11-20T06:45:57;86.78;;;30.50;;
52354;SDS011;38286;51.156;17.038;2022-11-20T06:48:23;84.32;;;30.35;;
52354;SDS011;38286;51.156;17.038;2022-11-20T06:50:50;74.63;;;27.13;;
52354;SDS011;38286;51.156;17.038;2022-11-20T06:53:16;80.78;;;29.65;;
52354;SDS011;38286;51.156;17.038;2022-11-20T06:55:42;78.35;;;28.42;;
52354;SDS011;38286;51.156;17.038;2022-11-20T06:58:12;71.30;;;27.77;;
52354;SDS011;38286;51.156;17.038;2022-11-20T07:00:38;77.63;;;28.33;;
52354;SDS011;38286;51.156;17.038;2022-11-20T07:03:04;80.97;;;28.95;;
52354;SDS011;38286;51.156;17.038;2022-11-20T07:05:30;71.13;;;28.55;;
52354;SDS011;38286;51.156;17.038;2022-11-20T07:07:56;72.82;;;28.88;;
52354;SDS011;38286;51.156;17.038;2022-11-20T07:10:22;81.88;;;31.98;;
52354;SDS011;38286;51.156;17.038;2022-11-20T07:12:51;80.85;;;30.10;;
52354;SDS011;38286;51.156;17.038;2022-11-20T07:15:18;73.43;;;29.77;;
52354;SDS011;38286;51.156;17.038;2022-11-20T07:17:44;80.15;;;32.00;;
52354;SDS011;38286;51.156;17.038;2022-11-20T07:20:09;77.47;;;29.55;;
52354;SDS011;38286;51.156;17.038;2022-11-20T07:22:36;69.35;;;29.40;;
52354;SDS011;38286;51.156;17.038;2022-11-20T07:25:01;75.70;;;30.50;;
52354;SDS011;38286;51.156;17.038;2022-11-20T07:27:28;74.28;;;30.92;;
52354;SDS011;38286;51.156;17.038;2022-11-20T07:29:54;75.03;;;32.17;;
52354;SDS011;38286;51.156;17.038;2022-11-20T07:32:21;74.57;;;30.27;;
52354;SDS011;38286;51.156;17.038;2022-11-20T07:34:46;75.57;;;31.33;;
52354;SDS011;38286;51.156;17.038;2022-11-20T07:37:13;75.70;;;30.10;;
52354;SDS011;38286;51.156;17.038;2022-11-20T07:39:38;74.50;;;30.88;;
52354;SDS011;38286;51.156;17.038;2022-11-20T07:42:05;68.90;;;29.75;;
52354;SDS011;38286;51.156;17.038;2022-11-20T07:44:31;66.25;;;28.15;;
52354;SDS011;38286;51.156;17.038;2022-11-20T07:46:57;63.75;;;27.35;;
52354;SDS011;38286;51.156;17.038;2022-11-20T07:49:23;69.88;;;28.42;;
52354;SDS011;38286;51.156;17.038;2022-11-20T07:51:51;61.10;;;25.33;;
52354;SDS011;38286;51.156;17.038;2022-11-20T07:54:19;58.60;;;24.98;;
52354;SDS011;38286;51.156;17.038;2022-11-20T07:56:45;52.92;;;24.15;;
52354;SDS011;38286;51.156;17.038;2022-11-20T07:59:11;53.75;;;24.63;;
52354;SDS011;38286;51.156;17.038;2022-11-20T08:01:38;60.55;;;26.23;;
52354;SDS011;38286;51.156;17.038;2022-11-20T08:04:04;62.95;;;27.13;;
52354;SDS011;38286;51.156;17.038;2022-11-20T08:06:30;63.63;;;25.45;;
52354;SDS011;38286;51.156;17.038;2022-11-20T08:08:55;53.15;;;24.13;;
52354;SDS011;38286;51.156;17.038;2022-11-20T08:11:21;63.35;;;26.33;;
52354;SDS011;38286;51.156;17.038;2022-11-20T08:14:05;54.72;;;26.33;;
52354;SDS011;38286;51.156;17.038;2022-11-20T08:16:37;50.47;;;22.45;;
52354;SDS011;38286;51.156;17.038;2022-11-20T08:19:03;55.15;;;25.27;;
52354;SDS011;38286;51.156;17.038;2022-11-20T08:21:32;51.10;;;24.13;;
52354;SDS011;38286;51.156;17.038;2022-11-20T08:23:58;52.92;;;24.77;;
52354;SDS011;38286;51.156;17.038;2022-11-20T08:26:24;48.72;;;23.75;;
52354;SDS011;38286;51.156;17.038;2022-11-20T08:28:53;56.53;;;24.38;;
52354;SDS011;38286;51.156;17.038;2022-11-20T08:31:20;51.67;;;24.65;;
52354;SDS011;38286;51.156;17.038;2022-11-20T08:33:46;51.25;;;23.35;;
52354;SDS011;38286;51.156;17.038;2022-11-20T08:36:12;47.63;;;22.20;;
52354;SDS011;38286;51.156;17.038;2022-11-20T08:38:37;44.80;;;22.40;;
52354;SDS011;38286;51.156;17.038;2022-11-20T08:41:03;51.75;;;23.92;;
52354;SDS011;38286;51.156;17.038;2022-11-20T08:43:49;45.70;;;21.33;;
52354;SDS011;38286;51.156;17.038;2022-11-20T08:46:18;46.13;;;21.08;;
52354;SDS011;38286;51.156;17.038;2022-11-20T08:48:43;50.60;;;22.73;;
52354;SDS011;38286;51.156;17.038;2022-11-20T08:51:10;41.55;;;19.38;;
52354;SDS011;38286;51.156;17.038;2022-11-20T08:53:36;46.05;;;20.08;;
52354;SDS011;38286;51.156;17.038;2022-11-20T08:56:02;42.72;;;20.63;;
52354;SDS011;38286;51.156;17.038;2022-11-20T08:58:28;37.65;;;19.20;;
52354;SDS011;38286;51.156;17.038;2022-11-20T09:00:54;40.33;;;20.20;;
52354;SDS011;38286;51.156;17.038;2022-11-20T09:03:19;42.20;;;20.98;;
52354;SDS011;38286;51.156;17.038;2022-11-20T09:05:45;39.47;;;19.38;;
52354;SDS011;38286;51.156;17.038;2022-11-20T09:08:11;35.58;;;17.20;;
52354;SDS011;38286;51.156;17.038;2022-11-20T09:10:36;34.80;;;17.88;;
52354;SDS011;38286;51.156;17.038;2022-11-20T09:13:05;34.15;;;17.70;;
52354;SDS011;38286;51.156;17.038;2022-11-20T09:15:31;32.38;;;15.90;;
52354;SDS011;38286;51.156;17.038;2022-11-20T09:17:58;35.03;;;18.00;;
52354;SDS011;38286;51.156;17.038;2022-11-20T09:20:25;34.17;;;18.33;;
52354;SDS011;38286;51.156;17.038;2022-11-20T09:22:51;37.97;;;18.33;;
52354;SDS011;38286;51.156;17.038;2022-11-20T09:25:17;36.05;;;19.02;;
52354;SDS011;38286;51.156;17.038;2022-11-20T09:27:43;38.55;;;19.55;;
52354;SDS011;38286;51.156;17.038;2022-11-20T09:30:11;35.38;;;18.55;;
52354;SDS011;38286;51.156;17.038;2022-11-20T09:32:40;38.75;;;19.02;;
52354;SDS011;38286;51.156;17.038;2022-11-20T09:35:09;37.88;;;19.77;;
52354;SDS011;38286;51.156;17.038;2022-11-20T09:37:35;33.97;;;17.83;;
52354;SDS011;38286;51.156;17.038;2022-11-20T09:40:01;33.75;;;18.10;;
52354;SDS011;38286;51.156;17.038;2022-11-20T09:42:37;33.67;;;17.40;;
52354;SDS011;38286;51.156;17.038;2022-11-20T09:45:20;36.67;;;18.98;;
52354;SDS011;38286;51.156;17.038;2022-11-20T09:50:31;37.30;;;19.33;;
52354;SDS011;38286;51.156;17.038;2022-11-20T09:55:27;36.83;;;19.00;;
52354;SDS011;38286;51.156;17.038;2022-11-20T09:57:54;38.65;;;18.90;;
52354;SDS011;38286;51.156;17.038;2022-11-20T10:00:21;35.60;;;19.05;;
52354;SDS011;38286;51.156;17.038;2022-11-20T10:02:49;37.55;;;19.20;;
52354;SDS011;38286;51.156;17.038;2022-11-20T10:05:23;40.22;;;21.73;;
52354;SDS011;38286;51.156;17.038;2022-11-20T10:10:28;41.83;;;22.05;;
52354;SDS011;38286;51.156;17.038;2022-11-20T10:15:34;38.35;;;20.27;;
52354;SDS011;38286;51.156;17.038;2022-11-20T10:18:18;38.92;;;21.60;;
52354;SDS011;38286;51.156;17.038;2022-11-20T10:21:34;39.58;;;21.95;;
52354;SDS011;38286;51.156;17.038;2022-11-20T10:23:48;40.53;;;22.83;;
52354;SDS011;38286;51.156;17.038;2022-11-20T10:31:50;36.97;;;21.73;;
52354;SDS011;38286;51.156;17.038;2022-11-20T10:36:54;38.58;;;20.00;;
52354;SDS011;38286;51.156;17.038;2022-11-20T10:39:27;39.08;;;19.35;;
52354;SDS011;38286;51.156;17.038;2022-11-20T10:41:57;32.33;;;17.63;;
52354;SDS011;38286;51.156;17.038;2022-11-20T10:44:27;29.90;;;16.65;;
52354;SDS011;38286;51.156;17.038;2022-11-20T10:47:14;32.90;;;17.00;;
52354;SDS011;38286;51.156;17.038;2022-11-20T10:49:41;33.60;;;17.17;;
52354;SDS011;38286;51.156;17.038;2022-11-20T10:57:26;33.45;;;18.02;;
52354;SDS011;38286;51.156;17.038;2022-11-20T11:02:39;33.53;;;17.53;;
52354;SDS011;38286;51.156;17.038;2022-11-20T11:05:12;33.13;;;17.38;;
52354;SDS011;38286;51.156;17.038;2022-11-20T11:07:44;35.33;;;16.40;;
52354;SDS011;38286;51.156;17.038;2022-11-20T11:12:43;36.28;;;16.65;;
52354;SDS011;38286;51.156;17.038;2022-11-20T11:15:25;36.70;;;16.60;;
52354;SDS011;38286;51.156;17.038;2022-11-20T11:18:10;33.35;;;15.60;;
52354;SDS011;38286;51.156;17.038;2022-11-20T11:20:36;38.80;;;17.48;;
52354;SDS011;38286;51.156;17.038;2022-11-20T11:23:02;36.97;;;16.40;;
52354;SDS011;38286;51.156;17.038;2022-11-20T11:25:30;38.35;;;17.45;;
52354;SDS011;38286;51.156;17.038;2022-11-20T11:28:00;39.83;;;17.35;;
52354;SDS011;38286;51.156;17.038;2022-11-20T11:30:46;39.35;;;15.85;;
52354;SDS011;38286;51.156;17.038;2022-11-20T11:33:27;35.22;;;16.58;;
52354;SDS011;38286;51.156;17.038;2022-11-20T11:35:55;39.75;;;14.80;;
52354;SDS011;38286;51.156;17.038;2022-11-20T11:38:34;35.88;;;16.20;;
52354;SDS011;38286;51.156;17.038;2022-11-20T11:41:02;39.33;;;17.08;;
52354;SDS011;38286;51.156;17.038;2022-11-20T11:43:30;38.30;;;16.60;;
52354;SDS011;38286;51.156;17.038;2022-11-20T11:46:26;32.75;;;13.73;;
52354;SDS011;38286;51.156;17.038;2022-11-20T11:48:55;32.40;;;14.23;;
52354;SDS011;38286;51.156;17.038;2022-11-20T11:51:21;38.40;;;15.75;;
52354;SDS011;38286;51.156;17.038;2022-11-20T11:53:47;33.30;;;15.75;;
52354;SDS011;38286;51.156;17.038;2022-11-20T11:56:13;31.63;;;13.00;;
52354;SDS011;38286;51.156;17.038;2022-11-20T12:01:30;30.33;;;12.07;;
52354;SDS011;38286;51.156;17.038;2022-11-20T12:04:02;25.70;;;11.10;;
52354;SDS011;38286;51.156;17.038;2022-11-20T12:06:30;32.63;;;13.15;;
52354;SDS011;38286;51.156;17.038;2022-11-20T12:09:04;29.58;;;12.38;;
52354;SDS011;38286;51.156;17.038;2022-11-20T12:16:38;26.92;;;11.82;;
52354;SDS011;38286;51.156;17.038;2022-11-20T12:19:08;30.40;;;11.60;;
52354;SDS011;38286;51.156;17.038;2022-11-20T12:21:52;29.42;;;12.38;;
52354;SDS011;38286;51.156;17.038;2022-11-20T12:29:56;27.25;;;11.73;;
52354;SDS011;38286;51.156;17.038;2022-11-20T12:49:48;25.45;;;10.57;;
52354;SDS011;38286;51.156;17.038;2022-11-20T12:52:25;29.75;;;11.27;;
52354;SDS011;38286;51.156;17.038;2022-11-20T12:55:12;26.80;;;12.35;;
52354;SDS011;38286;51.156;17.038;2022-11-20T13:00:35;31.98;;;12.77;;
52354;SDS011;38286;51.156;17.038;2022-11-20T13:03:06;26.67;;;10.90;;
52354;SDS011;38286;51.156;17.038;2022-11-20T13:08:20;29.90;;;12.60;;
52354;SDS011;38286;51.156;17.038;2022-11-20T13:13:24;25.77;;;10.30;;
52354;SDS011;38286;51.156;17.038;2022-11-20T13:16:58;25.55;;;10.32;;
52354;SDS011;38286;51.156;17.038;2022-11-20T13:19:04;24.27;;;10.93;;
52354;SDS011;38286;51.156;17.038;2022-11-20T13:21:40;31.80;;;11.73;;
52354;SDS011;38286;51.156;17.038;2022-11-20T13:26:59;27.95;;;10.02;;
52354;SDS011;38286;51.156;17.038;2022-11-20T13:29:26;30.90;;;12.85;;
52354;SDS011;38286;51.156;17.038;2022-11-20T13:32:00;28.23;;;12.00;;
52354;SDS011;38286;51.156;17.038;2022-11-20T13:34:37;27.05;;;12.02;;
52354;SDS011;38286;51.156;17.038;2022-11-20T13:37:03;31.20;;;12.95;;
52354;SDS011;38286;51.156;17.038;2022-11-20T13:39:33;25.55;;;11.90;;
52354;SDS011;38286;51.156;17.038;2022-11-20T13:42:00;25.13;;;11.55;;
52354;SDS011;38286;51.156;17.038;2022-11-20T13:44:36;27.48;;;12.40;;
52354;SDS011;38286;51.156;17.038;2022-11-20T13:47:03;27.38;;;11.63;;
52354;SDS011;38286;51.156;17.038;2022-11-20T13:49:34;24.58;;;11.52;;
52354;SDS011;38286;51.156;17.038;2022-11-20T13:57:36;22.58;;;11.13;;
52354;SDS011;38286;51.156;17.038;2022-11-20T14:00:25;25.95;;;12.05;;
52354;SDS011;38286;51.156;17.038;2022-11-20T14:05:35;28.45;;;11.77;;
52354;SDS011;38286;51.156;17.038;2022-11-20T14:08:03;25.58;;;11.98;;
52354;SDS011;38286;51.156;17.038;2022-11-20T14:10:31;30.15;;;11.60;;
52354;SDS011;38286;51.156;17.038;2022-11-20T14:12:56;25.50;;;10.98;;
52354;SDS011;38286;51.156;17.038;2022-11-20T14:15:26;26.67;;;11.20;;
52354;SDS011;38286;51.156;17.038;2022-11-20T14:17:58;23.35;;;9.73;;
52354;SDS011;38286;51.156;17.038;2022-11-20T14:20:28;27.27;;;11.00;;
52354;SDS011;38286;51.156;17.038;2022-11-20T14:22:56;22.25;;;9.50;;
52354;SDS011;38286;51.156;17.038;2022-11-20T14:25:25;25.05;;;10.10;;
52354;SDS011;38286;51.156;17.038;2022-11-20T14:27:57;25.17;;;10.70;;
52354;SDS011;38286;51.156;17.038;2022-11-20T14:30:37;29.15;;;11.15;;
52354;SDS011;38286;51.156;17.038;2022-11-20T14:33:09;27.40;;;11.40;;
52354;SDS011;38286;51.156;17.038;2022-11-20T14:35:37;23.05;;;10.80;;
52354;SDS011;38286;51.156;17.038;2022-11-20T14:38:08;24.98;;;10.23;;
52354;SDS011;38286;51.156;17.038;2022-11-20T14:40:36;29.08;;;11.43;;
52354;SDS011;38286;51.156;17.038;2022-11-20T14:43:04;25.08;;;10.80;;
52354;SDS011;38286;51.156;17.038;2022-11-20T14:46:03;25.55;;;10.57;;
52354;SDS011;38286;51.156;17.038;2022-11-20T14:48:31;31.85;;;13.48;;
52354;SDS011;38286;51.156;17.038;2022-11-20T14:50:59;42.17;;;15.05;;
52354;SDS011;38286;51.156;17.038;2022-11-20T14:53:25;30.95;;;13.35;;
52354;SDS011;38286;51.156;17.038;2022-11-20T14:55:55;28.65;;;12.02;;
52354;SDS011;38286;51.156;17.038;2022-11-20T14:58:23;30.05;;;13.05;;
52354;SDS011;38286;51.156;17.038;2022-11-20T15:00:57;26.10;;;10.60;;
52354;SDS011;38286;51.156;17.038;2022-11-20T15:03:30;30.77;;;12.27;;
52354;SDS011;38286;51.156;17.038;2022-11-20T15:06:00;26.02;;;12.45;;
52354;SDS011;38286;51.156;17.038;2022-11-20T15:08:26;29.58;;;12.57;;
52354;SDS011;38286;51.156;17.038;2022-11-20T15:10:51;26.90;;;12.23;;
52354;SDS011;38286;51.156;17.038;2022-11-20T15:13:39;28.08;;;12.90;;
52354;SDS011;38286;51.156;17.038;2022-11-20T15:16:09;28.70;;;12.80;;
52354;SDS011;38286;51.156;17.038;2022-11-20T15:18:43;30.55;;;13.52;;
52354;SDS011;38286;51.156;17.038;2022-11-20T15:21:16;33.63;;;13.18;;
52354;SDS011;38286;51.156;17.038;2022-11-20T15:23:42;30.02;;;12.40;;
52354;SDS011;38286;51.156;17.038;2022-11-20T15:26:09;33.17;;;13.20;;
52354;SDS011;38286;51.156;17.038;2022-11-20T15:28:39;33.40;;;14.07;;
52354;SDS011;38286;51.156;17.038;2022-11-20T15:31:12;33.80;;;15.07;;
52354;SDS011;38286;51.156;17.038;2022-11-20T15:33:40;35.40;;;15.02;;
52354;SDS011;38286;51.156;17.038;2022-11-20T15:36:06;32.97;;;14.18;;
52354;SDS011;38286;51.156;17.038;2022-11-20T15:38:32;30.77;;;13.77;;
52354;SDS011;38286;51.156;17.038;2022-11-20T15:40:58;28.98;;;14.18;;
52354;SDS011;38286;51.156;17.038;2022-11-20T15:43:23;37.13;;;16.23;;
52354;SDS011;38286;51.156;17.038;2022-11-20T15:45:50;48.85;;;19.60;;